Time;durP1;ratioP1;P1;durP2;ratioP2;P2;SDS_P1;SDS_P2;PMS_P1;PMS_P2;Temp;Humidity;BMP_temperature;BMP_pressure;BME280_temperature;BME280_humidity;BME280_pressure;Samples;Min_cycle;Max_cycle;Signal;HPM_P1;HPM_P2
2022/08/28 00:01:47;;;;;;;1.40;1.20;;;24.60;51.20;;;;;;4970597;28;87003;-87
2022/08/28 00:04:12;;;;;;;1.30;1.08;;;24.60;51.20;;;;;;4969297;28;87917;-87
2022/08/28 00:06:38;;;;;;;1.45;1.33;;;24.60;51.20;;;;;;4968473;28;88681;-88
2022/08/28 00:09:04;;;;;;;1.45;1.02;;;24.60;51.10;;;;;;4969763;28;89900;-88
2022/08/28 00:11:30;;;;;;;2.08;1.30;;;24.60;51.10;;;;;;4968468;28;87635;-88
2022/08/28 00:13:57;;;;;;;1.30;1.02;;;24.60;51.20;;;;;;4969148;28;87710;-85
2022/08/28 00:16:23;;;;;;;1.20;1.05;;;24.60;51.10;;;;;;5000425;28;91190;-88
2022/08/28 00:18:50;;;;;;;1.95;1.08;;;24.60;51.20;;;;;;5000300;28;89946;-85
2022/08/28 00:21:16;;;;;;;2.15;1.30;;;24.60;51.00;;;;;;4969306;28;88174;-88
2022/08/28 00:23:42;;;;;;;1.35;1.10;;;24.60;51.30;;;;;;4969664;28;87465;-88
2022/08/28 00:26:08;;;;;;;2.05;1.13;;;24.60;51.20;;;;;;5001280;28;91726;-85
2022/08/28 00:28:33;;;;;;;2.00;1.17;;;24.60;51.20;;;;;;5001040;28;91144;-88
2022/08/28 00:30:59;;;;;;;1.45;1.10;;;24.60;51.20;;;;;;4968384;28;87505;-87
2022/08/28 00:33:28;;;;;;;1.65;1.13;;;24.50;51.20;;;;;;4968475;28;88987;-86
2022/08/28 00:35:55;;;;;;;1.23;1.10;;;24.60;51.30;;;;;;5001951;28;90876;-87
2022/08/28 00:38:22;;;;;;;2.47;1.45;;;24.60;51.20;;;;;;4967285;28;91012;-88
2022/08/28 00:40:51;;;;;;;1.40;1.30;;;24.60;51.40;;;;;;4969055;28;87450;-88
2022/08/28 00:43:26;;;;;;;1.42;1.30;;;24.50;51.40;;;;;;4968326;28;90645;-86
2022/08/28 00:45:52;;;;;;;1.83;1.30;;;24.50;51.30;;;;;;4967104;28;88189;-88
2022/08/28 00:48:17;;;;;;;1.92;1.13;;;24.60;51.30;;;;;;4968990;28;88812;-85
2022/08/28 00:53:28;;;;;;;1.50;1.20;;;24.50;51.30;;;;;;4968514;28;87317;-88
2022/08/28 00:55:54;;;;;;;1.58;1.00;;;24.50;51.40;;;;;;4968841;28;87644;-89
2022/08/28 00:58:20;;;;;;;1.45;1.05;;;24.50;51.20;;;;;;4967491;28;87943;-87
2022/08/28 01:00:45;;;;;;;2.90;1.35;;;24.50;51.30;;;;;;4969315;28;87760;-87
2022/08/28 01:03:11;;;;;;;2.30;1.30;;;24.50;51.40;;;;;;4969972;28;87394;-88
2022/08/28 01:05:42;;;;;;;2.05;1.23;;;24.50;51.50;;;;;;4970532;28;88711;-86
2022/08/28 01:08:08;;;;;;;1.10;1.00;;;24.50;51.50;;;;;;4970295;28;88541;-86
2022/08/28 01:10:33;;;;;;;1.35;1.10;;;24.50;51.40;;;;;;4984082;28;88191;-87
2022/08/28 01:13:00;;;;;;;1.52;1.20;;;24.50;51.50;;;;;;4986274;28;87521;-88
2022/08/28 01:15:34;;;;;;;2.05;1.30;;;24.50;51.50;;;;;;4970073;28;90511;-87
2022/08/28 01:18:04;;;;;;;1.88;1.10;;;24.50;51.50;;;;;;4986484;28;87897;-87
2022/08/28 01:20:32;;;;;;;1.42;1.10;;;24.50;51.70;;;;;;4986466;28;87438;-87
2022/08/28 01:23:31;;;;;;;1.33;1.23;;;24.50;51.40;;;;;;4969265;28;91030;-86
2022/08/28 01:25:59;;;;;;;1.10;1.00;;;24.50;51.70;;;;;;4985654;28;90641;-85
2022/08/28 01:28:25;;;;;;;1.20;1.10;;;24.50;51.70;;;;;;4986388;28;88738;-88
2022/08/28 01:30:50;;;;;;;2.80;1.45;;;24.50;51.70;;;;;;4986998;28;87297;-87
2022/08/28 01:33:18;;;;;;;1.92;1.20;;;24.50;51.70;;;;;;4985484;28;87461;-89
2022/08/28 01:35:46;;;;;;;1.50;1.20;;;24.50;51.70;;;;;;4986604;28;89077;-88
2022/08/28 01:38:14;;;;;;;1.85;1.23;;;24.40;51.80;;;;;;4968322;28;91567;-89
2022/08/28 01:40:45;;;;;;;2.10;1.35;;;24.50;51.80;;;;;;4983966;28;87144;-88
2022/08/28 01:43:14;;;;;;;2.75;1.02;;;24.40;51.70;;;;;;4973359;28;88167;-88
2022/08/28 01:45:48;;;;;;;1.50;1.00;;;24.50;51.70;;;;;;4970404;28;88192;-87
2022/08/28 01:48:14;;;;;;;2.47;1.13;;;24.40;51.60;;;;;;4973269;28;88883;-85
2022/08/28 01:50:41;;;;;;;1.10;1.00;;;24.40;51.70;;;;;;4971337;28;87099;-88
2022/08/28 01:53:08;;;;;;;1.25;0.80;;;24.40;51.80;;;;;;4971457;28;87383;-87
2022/08/28 01:55:35;;;;;;;1.48;1.17;;;24.40;51.90;;;;;;4972025;28;88334;-85
2022/08/28 01:58:04;;;;;;;1.30;1.05;;;24.40;51.80;;;;;;4972489;28;87247;-88
2022/08/28 02:00:29;;;;;;;1.23;0.98;;;24.50;51.90;;;;;;4971307;28;88230;-88
2022/08/28 02:02:57;;;;;;;1.25;1.00;;;24.40;51.90;;;;;;4971765;28;87058;-88
2022/08/28 02:05:24;;;;;;;1.70;0.90;;;24.40;51.90;;;;;;4970864;28;88738;-89
2022/08/28 02:07:51;;;;;;;1.27;1.00;;;24.40;51.70;;;;;;4971987;28;87300;-86
2022/08/28 02:10:18;;;;;;;1.88;1.23;;;24.40;51.90;;;;;;4972945;28;87379;-88
2022/08/28 02:12:44;;;;;;;1.25;1.02;;;24.40;52.00;;;;;;4971261;28;87257;-85
2022/08/28 02:15:10;;;;;;;1.70;1.25;;;24.40;51.90;;;;;;4970126;28;87438;-87
2022/08/28 02:17:36;;;;;;;1.52;1.20;;;24.40;52.10;;;;;;4973043;28;88205;-89
2022/08/28 02:20:03;;;;;;;1.50;1.00;;;24.40;52.10;;;;;;4970831;28;87357;-87
2022/08/28 02:22:29;;;;;;;1.00;0.90;;;24.40;52.10;;;;;;4971727;28;90357;-89
2022/08/28 02:24:57;;;;;;;1.95;1.20;;;24.40;52.00;;;;;;4970674;28;88259;-88
2022/08/28 02:27:22;;;;;;;1.83;1.15;;;24.40;52.00;;;;;;4971149;28;92427;-85
2022/08/28 02:29:48;;;;;;;1.60;1.20;;;24.40;52.10;;;;;;4972774;28;86935;-87
2022/08/28 02:32:13;;;;;;;1.35;1.10;;;24.40;52.00;;;;;;4972541;28;87363;-87
2022/08/28 02:34:40;;;;;;;1.30;1.08;;;24.40;52.10;;;;;;4970960;28;87229;-86
2022/08/28 02:37:10;;;;;;;1.17;1.05;;;24.40;52.00;;;;;;4970639;28;88072;-88
2022/08/28 02:39:35;;;;;;;;;;;24.40;52.10;;;;;;4971834;28;86767;-87
2022/08/28 02:42:01;;;;;;;1.20;1.10;;;24.40;52.10;;;;;;4972471;28;86244;-87
2022/08/28 02:44:27;;;;;;;1.20;1.10;;;24.40;52.10;;;;;;4969346;28;89641;-88
2022/08/28 02:46:52;;;;;;;1.98;1.13;;;24.40;52.20;;;;;;4990545;28;88819;-87
2022/08/28 02:49:18;;;;;;;1.30;1.10;;;24.40;52.20;;;;;;4975762;28;88360;-88
2022/08/28 02:51:44;;;;;;;2.35;1.00;;;24.40;52.30;;;;;;4970660;28;87524;-87
2022/08/28 02:54:09;;;;;;;1.42;1.00;;;24.40;52.50;;;;;;4968834;28;91431;-85
2022/08/28 02:56:35;;;;;;;1.05;0.95;;;24.40;52.30;;;;;;4972006;28;88101;-87
2022/08/28 02:59:00;;;;;;;1.33;1.23;;;24.30;52.30;;;;;;4970230;28;87179;-87
2022/08/28 03:01:26;;;;;;;1.25;1.02;;;24.40;52.40;;;;;;4971036;28;87354;-87
2022/08/28 03:03:52;;;;;;;1.38;1.27;;;24.40;52.50;;;;;;4984925;28;90453;-87
2022/08/28 03:06:18;;;;;;;1.45;0.98;;;24.30;52.40;;;;;;4969839;28;88232;-86
2022/08/28 03:08:44;;;;;;;1.83;1.42;;;24.40;52.50;;;;;;4972529;28;87710;-87
2022/08/28 03:11:10;;;;;;;2.05;1.15;;;24.40;52.30;;;;;;4969014;28;87375;-87
2022/08/28 03:13:37;;;;;;;1.85;1.10;;;24.30;52.30;;;;;;5003288;28;91969;-87
2022/08/28 03:16:03;;;;;;;1.35;1.10;;;24.40;52.50;;;;;;5001801;28;90686;-87
2022/08/28 03:18:29;;;;;;;0.88;0.88;;;24.40;52.40;;;;;;4970167;28;87236;-88
2022/08/28 03:20:55;;;;;;;1.35;1.02;;;24.40;52.60;;;;;;4971234;28;87577;-87
2022/08/28 03:23:27;;;;;;;1.23;1.08;;;24.30;52.50;;;;;;4999779;28;91526;-88
2022/08/28 03:25:56;;;;;;;1.80;1.20;;;24.40;52.40;;;;;;4970118;28;88440;-89
2022/08/28 03:28:23;;;;;;;2.65;1.13;;;24.30;52.60;;;;;;4970157;28;87644;-85
2022/08/28 03:30:49;;;;;;;1.80;1.08;;;24.30;52.30;;;;;;4970969;28;87334;-86
2022/08/28 03:33:15;;;;;;;2.13;1.10;;;24.30;52.50;;;;;;4973106;28;87714;-86
2022/08/28 03:35:41;;;;;;;1.33;1.05;;;24.30;52.40;;;;;;4971511;28;87869;-88
2022/08/28 03:38:07;;;;;;;1.67;1.05;;;24.30;52.50;;;;;;4969038;28;88475;-85
2022/08/28 03:40:33;;;;;;;1.30;1.10;;;24.30;52.30;;;;;;4971656;28;88200;-88
2022/08/28 03:42:58;;;;;;;1.73;1.00;;;24.30;52.40;;;;;;4961044;28;90458;-88
2022/08/28 03:45:24;;;;;;;1.52;1.00;;;24.30;52.40;;;;;;4971581;28;88393;-86
2022/08/28 03:47:50;;;;;;;1.23;1.10;;;24.30;52.50;;;;;;4972264;28;87550;-87
2022/08/28 03:50:16;;;;;;;1.45;1.00;;;24.30;52.40;;;;;;4968258;28;88927;-86
2022/08/28 03:52:42;;;;;;;1.80;1.17;;;24.30;52.40;;;;;;4968386;28;87732;-88
2022/08/28 03:55:10;;;;;;;1.25;1.00;;;24.30;52.50;;;;;;5001099;28;91009;-88
2022/08/28 03:57:35;;;;;;;1.25;1.10;;;24.30;52.50;;;;;;5002188;28;87659;-87
2022/08/28 04:00:05;;;;;;;1.60;1.38;;;24.30;52.40;;;;;;5001701;28;90851;-88
2022/08/28 04:02:31;;;;;;;1.58;1.17;;;24.30;52.50;;;;;;4966839;28;92944;-88
2022/08/28 04:04:57;;;;;;;1.25;1.00;;;24.30;52.50;;;;;;4967121;28;88016;-87
2022/08/28 04:07:22;;;;;;;1.05;0.95;;;24.30;52.60;;;;;;4965542;28;87256;-87
2022/08/28 04:09:48;;;;;;;2.17;1.30;;;24.30;52.60;;;;;;4967772;28;88863;-86
2022/08/28 04:12:14;;;;;;;1.15;0.90;;;24.30;52.50;;;;;;4965908;28;87979;-85
2022/08/28 04:14:41;;;;;;;1.48;1.05;;;24.30;52.40;;;;;;4971599;28;87358;-88
2022/08/28 04:17:07;;;;;;;1.30;1.00;;;24.30;52.60;;;;;;4969647;28;86936;-87
2022/08/28 04:19:33;;;;;;;1.40;1.00;;;24.30;52.40;;;;;;4968666;28;89317;-89
2022/08/28 04:22:00;;;;;;;1.02;0.90;;;24.30;52.40;;;;;;4970413;28;88099;-88
2022/08/28 04:24:25;;;;;;;1.88;1.05;;;24.30;52.50;;;;;;4969614;28;88106;-86
2022/08/28 04:26:52;;;;;;;1.70;1.10;;;24.30;52.40;;;;;;5000727;28;88505;-86
2022/08/28 04:29:18;;;;;;;1.08;0.82;;;24.30;52.60;;;;;;4968770;28;86996;-87
2022/08/28 04:31:43;;;;;;;1.65;1.25;;;24.30;52.50;;;;;;5000972;28;90067;-88
2022/08/28 04:34:09;;;;;;;1.63;1.05;;;24.30;52.60;;;;;;4970588;28;87977;-88
2022/08/28 04:36:35;;;;;;;1.38;1.10;;;24.30;52.70;;;;;;4968905;28;87469;-88
2022/08/28 04:39:04;;;;;;;2.70;1.38;;;24.30;52.70;;;;;;4969519;28;87439;-86
2022/08/28 04:41:30;;;;;;;1.52;1.25;;;24.30;52.60;;;;;;5001458;28;94552;-88
2022/08/28 04:43:57;;;;;;;1.20;1.00;;;24.30;52.60;;;;;;4969153;28;86633;-87
2022/08/28 04:46:23;;;;;;;1.20;1.00;;;24.30;52.50;;;;;;4968898;28;88065;-87
2022/08/28 04:48:48;;;;;;;1.27;1.00;;;24.30;52.40;;;;;;4969623;28;87438;-89
2022/08/28 04:51:15;;;;;;;1.42;1.00;;;24.30;52.60;;;;;;4967508;28;89539;-88
2022/08/28 04:53:42;;;;;;;1.15;0.95;;;24.30;52.60;;;;;;4969283;28;89281;-86
2022/08/28 04:56:09;;;;;;;1.77;1.20;;;24.30;52.40;;;;;;4968301;28;87577;-89
2022/08/28 04:58:36;;;;;;;1.17;1.02;;;24.30;52.70;;;;;;5001986;28;89096;-89
2022/08/28 05:01:11;;;;;;;1.65;1.17;;;24.30;52.70;;;;;;4968408;28;88279;-89
2022/08/28 05:03:38;;;;;;;1.38;1.27;;;24.30;53.00;;;;;;4967420;28;91096;-88
2022/08/28 05:06:05;;;;;;;1.60;0.95;;;24.30;52.50;;;;;;4969745;28;87038;-89
2022/08/28 05:08:31;;;;;;;1.20;0.93;;;24.30;52.50;;;;;;4969254;28;86651;-88
2022/08/28 05:11:07;;;;;;;1.83;1.00;;;24.30;52.50;;;;;;4999938;28;91632;-89
2022/08/28 05:13:33;;;;;;;1.25;1.00;;;24.30;52.50;;;;;;4970991;28;88369;-87
2022/08/28 05:16:02;;;;;;;2.03;1.20;;;24.30;52.50;;;;;;4999879;28;88353;-87
2022/08/28 05:18:28;;;;;;;1.13;0.93;;;24.30;52.70;;;;;;4968013;28;91047;-88
2022/08/28 05:20:54;;;;;;;1.60;0.98;;;24.30;53.30;;;;;;4966666;28;89861;-85
2022/08/28 05:23:19;;;;;;;1.50;0.93;;;24.30;52.70;;;;;;5000729;28;90190;-87
2022/08/28 05:25:47;;;;;;;1.35;1.10;;;24.20;52.50;;;;;;4969962;28;87458;-89
2022/08/28 05:28:13;;;;;;;1.25;1.08;;;24.20;52.60;;;;;;4969317;28;87315;-87
2022/08/28 05:30:40;;;;;;;1.95;1.20;;;24.20;52.60;;;;;;4968970;28;88267;-86
2022/08/28 05:33:07;;;;;;;1.30;1.10;;;24.30;52.80;;;;;;4984587;28;89795;-87
2022/08/28 05:35:37;;;;;;;1.40;0.90;;;24.30;52.70;;;;;;5002909;28;86995;-86
2022/08/28 05:38:03;;;;;;;0.85;0.85;;;24.30;52.60;;;;;;4966513;28;87810;-87
2022/08/28 05:40:29;;;;;;;1.83;1.20;;;24.30;52.70;;;;;;4998675;28;91262;-85
2022/08/28 05:42:55;;;;;;;2.30;1.10;;;24.20;52.70;;;;;;4969217;28;90174;-87
2022/08/28 05:45:21;;;;;;;2.20;1.20;;;24.30;52.70;;;;;;4970816;28;87081;-90
2022/08/28 05:47:47;;;;;;;1.63;1.20;;;24.30;52.60;;;;;;4984662;28;88315;-88
2022/08/28 05:50:13;;;;;;;2.50;1.40;;;24.30;52.90;;;;;;4967725;28;88289;-89
2022/08/28 05:52:41;;;;;;;1.83;1.20;;;24.30;53.30;;;;;;4968659;28;88022;-88
2022/08/28 05:55:11;;;;;;;2.75;1.25;;;24.30;53.60;;;;;;4968415;28;87479;-90
2022/08/28 05:57:38;;;;;;;1.35;1.10;;;24.30;53.80;;;;;;4969896;28;86393;-88
2022/08/28 06:00:05;;;;;;;2.65;1.27;;;24.30;53.90;;;;;;4967865;28;88522;-88
2022/08/28 06:02:33;;;;;;;9.38;2.40;;;24.20;54.00;;;;;;4970141;28;89890;-91
2022/08/28 06:04:59;;;;;;;5.32;2.28;;;24.30;51.40;;;;;;4968631;28;88132;-88
2022/08/28 06:07:25;;;;;;;8.13;2.38;;;24.30;51.30;;;;;;4972139;28;87222;-91
2022/08/28 06:09:50;;;;;;;9.95;2.72;;;24.30;52.10;;;;;;4966505;28;91322;-90
2022/08/28 06:12:16;;;;;;;7.30;2.35;;;24.30;50.80;;;;;;4949186;28;90784;-90
2022/08/28 06:14:41;;;;;;;11.82;2.75;;;24.30;51.70;;;;;;4956232;28;87333;-90
2022/08/28 06:17:07;;;;;;;5.80;2.58;;;24.30;52.10;;;;;;4958394;28;90209;-88
2022/08/28 06:19:35;;;;;;;8.77;3.17;;;24.30;50.90;;;;;;4969032;28;93427;-89
2022/08/28 06:22:03;;;;;;;9.95;2.78;;;24.20;50.10;;;;;;4948754;28;90901;-91
2022/08/28 06:24:29;;;;;;;14.57;3.35;;;24.10;49.50;;;;;;4959534;28;87226;-88
2022/08/28 06:26:56;;;;;;;10.02;3.38;;;24.10;49.30;;;;;;4970637;28;87438;-91
2022/08/28 06:29:22;;;;;;;7.95;3.40;;;24.00;48.80;;;;;;4951401;28;90825;-90
2022/08/28 06:31:52;;;;;;;9.88;2.97;;;24.00;49.10;;;;;;4951795;28;89701;-89
2022/08/28 06:34:18;;;;;;;9.50;3.30;;;24.00;48.90;;;;;;4950375;28;87704;-87
2022/08/28 06:36:44;;;;;;;9.40;3.30;;;24.00;48.40;;;;;;4943908;28;88584;-90
2022/08/28 06:39:13;;;;;;;8.23;3.53;;;24.00;48.70;;;;;;4949867;28;91885;-90
2022/08/28 06:41:41;;;;;;;;;;;23.90;48.70;;;;;;4968334;28;89693;-87
2022/08/28 06:44:12;;;;;;;9.30;3.25;;;24.00;48.50;;;;;;4951583;28;87489;-89
2022/08/28 06:46:39;;;;;;;11.05;3.17;;;24.00;48.20;;;;;;4966298;28;89389;-90
2022/08/28 06:49:07;;;;;;;8.68;3.30;;;24.00;48.70;;;;;;4965193;28;89307;-91
2022/08/28 06:51:33;;;;;;;13.90;3.33;;;24.00;48.30;;;;;;4965393;28;91197;-92
2022/08/28 06:54:00;;;;;;;13.68;4.00;;;24.00;48.30;;;;;;4965587;28;88008;-89
2022/08/28 06:56:26;;;;;;;8.73;3.08;;;24.00;48.20;;;;;;4967191;28;90353;-90
2022/08/28 06:58:51;;;;;;;7.93;2.70;;;24.00;48.30;;;;;;4967280;28;90581;-93
2022/08/28 07:01:29;;;;;;;102.40;19.85;;;24.00;48.20;;;;;;4965836;28;90627;-90
2022/08/28 07:03:58;;;;;;;119.10;21.42;;;24.00;48.10;;;;;;4987422;28;87331;-90
2022/08/28 07:06:24;;;;;;;70.47;15.10;;;24.00;48.30;;;;;;5003212;28;89720;-91
2022/08/28 07:08:59;;;;;;;42.42;9.90;;;24.00;48.30;;;;;;4971201;28;88601;-92
2022/08/28 07:11:30;;;;;;;31.13;8.68;;;24.00;48.60;;;;;;4969064;28;89822;-92
2022/08/28 07:13:57;;;;;;;34.92;8.18;;;24.00;47.70;;;;;;5003675;28;87660;-90
2022/08/28 07:16:26;;;;;;;26.67;6.25;;;24.00;47.60;;;;;;5003782;28;90732;-92
2022/08/28 07:18:52;;;;;;;25.88;5.45;;;24.00;47.60;;;;;;5001711;28;92399;-93
2022/08/28 07:21:19;;;;;;;15.55;4.68;;;24.00;47.60;;;;;;5001551;28;92147;-92
2022/08/28 07:23:46;;;;;;;18.27;4.70;;;24.00;47.70;;;;;;4941903;28;86999;-91
2022/08/28 07:26:15;;;;;;;15.63;4.47;;;23.90;47.60;;;;;;4983619;28;89411;-90
2022/08/28 07:28:41;;;;;;;14.15;4.78;;;24.00;47.60;;;;;;5004091;28;91672;-88
2022/08/28 07:31:17;;;;;;;12.63;3.95;;;24.00;47.60;;;;;;5001434;28;89613;-89
2022/08/28 07:33:43;;;;;;;18.25;4.95;;;24.10;47.80;;;;;;4971161;28;87672;-90
2022/08/28 07:36:20;;;;;;;12.95;3.80;;;24.10;47.50;;;;;;5002540;28;89998;-89
2022/08/28 07:38:46;;;;;;;14.63;3.80;;;24.20;47.40;;;;;;4970603;28;90486;-89
2022/08/28 07:41:24;;;;;;;11.63;3.25;;;24.20;47.50;;;;;;5001140;28;90148;-90
2022/08/28 07:46:36;;;;;;;9.57;3.17;;;24.20;47.30;;;;;;4971239;28;87294;-90
2022/08/28 07:49:03;;;;;;;10.82;3.03;;;24.20;47.20;;;;;;4969472;28;91970;-91
2022/08/28 07:51:28;;;;;;;10.95;3.40;;;24.30;47.60;;;;;;5004308;28;89644;-91
2022/08/28 07:54:00;;;;;;;11.70;3.20;;;24.30;47.60;;;;;;4972498;28;86940;-89
2022/08/28 07:56:28;;;;;;;8.40;2.90;;;24.30;47.30;;;;;;4986273;28;90054;-93
2022/08/28 07:58:58;;;;;;;8.60;3.10;;;24.40;47.00;;;;;;5001502;28;88000;-89
2022/08/28 08:01:27;;;;;;;9.75;3.42;;;24.40;46.90;;;;;;4987177;28;89374;-91
2022/08/28 08:03:53;;;;;;;10.03;3.37;;;24.50;47.00;;;;;;4970189;28;87023;-89
2022/08/28 08:06:19;;;;;;;12.57;3.17;;;24.50;46.90;;;;;;4970485;28;87411;-92
2022/08/28 08:08:46;;;;;;;9.63;2.90;;;24.50;47.20;;;;;;4969943;28;90204;-91
2022/08/28 08:11:16;;;;;;;9.07;2.88;;;24.50;46.70;;;;;;5000651;28;91931;-89
2022/08/28 08:13:44;;;;;;;6.72;2.63;;;24.50;46.90;;;;;;4967448;28;87046;-91
2022/08/28 08:16:16;;;;;;;8.85;2.60;;;24.50;46.80;;;;;;5001130;28;88130;-90
2022/08/28 08:18:42;;;;;;;10.90;2.67;;;24.50;47.20;;;;;;4967322;28;90559;-89
2022/08/28 08:21:22;;;;;;;8.32;3.28;;;24.50;46.90;;;;;;4980137;28;90212;-89
2022/08/28 08:23:48;;;;;;;;;;;24.40;47.00;;;;;;4969675;28;86965;-92
2022/08/28 08:26:16;;;;;;;8.32;2.90;;;24.40;46.90;;;;;;4970205;28;86126;-89
2022/08/28 08:28:43;;;;;;;12.70;2.83;;;24.40;46.90;;;;;;5000607;28;90065;-87
2022/08/28 08:31:12;;;;;;;10.65;2.65;;;24.40;47.40;;;;;;4969625;28;88350;-88
2022/08/28 08:33:41;;;;;;;10.70;2.47;;;24.40;47.30;;;;;;5000822;28;87937;-88
2022/08/28 08:36:08;;;;;;;11.73;2.97;;;24.30;47.40;;;;;;4968515;28;87458;-90
2022/08/28 08:38:35;;;;;;;14.98;2.72;;;24.40;47.20;;;;;;4969474;28;88431;-90
2022/08/28 08:41:05;;;;;;;9.30;2.88;;;24.40;46.90;;;;;;4968318;28;88259;-90
2022/08/28 08:43:35;;;;;;;8.93;2.95;;;24.40;47.50;;;;;;5000461;28;87218;-89
2022/08/28 08:46:01;;;;;;;7.93;2.75;;;24.40;46.70;;;;;;4970217;28;87195;-89
2022/08/28 08:48:30;;;;;;;11.10;3.17;;;24.40;47.60;;;;;;4969338;28;88625;-89
2022/08/28 08:51:13;;;;;;;12.38;3.03;;;24.40;47.00;;;;;;4984970;28;91420;-90
2022/08/28 08:54:08;;;;;;;13.57;3.42;;;24.40;46.90;;;;;;4967660;28;87011;-87
2022/08/28 08:56:33;;;;;;;14.13;3.40;;;24.40;47.30;;;;;;4968439;28;92759;-91
2022/08/28 08:59:03;;;;;;;11.15;2.92;;;24.40;47.20;;;;;;4969147;28;89023;-92
2022/08/28 09:01:40;;;;;;;13.13;3.47;;;24.50;46.90;;;;;;5000252;28;90866;-91
2022/08/28 09:04:21;;;;;;;8.20;2.90;;;24.50;46.90;;;;;;4997678;28;87054;-90
2022/08/28 09:06:58;;;;;;;7.75;2.97;;;24.40;46.50;;;;;;5000938;28;89654;-87
2022/08/28 09:09:47;;;;;;;8.32;3.10;;;24.40;46.30;;;;;;4983253;28;91604;-88
2022/08/28 09:12:21;;;;;;;8.00;2.42;;;24.50;46.60;;;;;;4967273;28;87434;-88
2022/08/28 09:14:56;;;;;;;7.43;2.47;;;24.50;46.50;;;;;;4982955;28;88111;-88
2022/08/28 09:17:27;;;;;;;10.20;2.55;;;24.60;46.30;;;;;;4999281;28;90833;-87
2022/08/28 09:19:53;;;;;;;8.48;2.55;;;24.60;46.40;;;;;;4966888;28;88607;-87
2022/08/28 09:22:19;;;;;;;9.27;2.35;;;24.60;46.40;;;;;;4968920;28;88284;-86
2022/08/28 09:24:45;;;;;;;8.55;3.40;;;24.60;46.80;;;;;;4964534;28;87960;-84
2022/08/28 09:27:28;;;;;;;11.02;2.60;;;24.60;46.50;;;;;;4964934;28;88204;-87
2022/08/28 09:30:01;;;;;;;6.35;2.45;;;24.60;46.50;;;;;;4966852;28;88127;-87
2022/08/28 09:32:32;;;;;;;9.57;2.60;;;24.60;47.00;;;;;;4947012;28;92115;-87
2022/08/28 09:35:26;;;;;;;7.60;2.70;;;24.50;47.00;;;;;;4963045;28;87639;-88
2022/08/28 09:37:53;;;;;;;8.35;2.83;;;24.50;46.90;;;;;;4965233;28;87660;-87
2022/08/28 09:43:25;;;;;;;9.75;3.20;;;24.60;47.10;;;;;;4963479;28;88114;-85
2022/08/28 09:43:26;;;;;;;7.78;3.00;;;24.60;47.10;;;;;;4964849;28;87818;-86
2022/08/28 09:46:06;;;;;;;6.28;2.58;;;24.50;47.30;;;;;;4970788;28;87083;-86
2022/08/28 09:48:36;;;;;;;8.13;2.83;;;24.50;47.40;;;;;;4964588;28;87449;-84
2022/08/28 09:51:07;;;;;;;;;;;24.50;47.00;;;;;;4968299;28;89474;-87
2022/08/28 09:53:55;;;;;;;11.10;3.00;;;24.50;47.30;;;;;;4967638;28;96092;-88
2022/08/28 09:56:34;;;;;;;10.95;3.13;;;24.50;47.30;;;;;;4966402;28;87656;-88
2022/08/28 09:59:13;;;;;;;18.67;4.27;;;24.50;47.50;;;;;;4967978;28;87956;-87
2022/08/28 10:01:45;;;;;;;13.60;4.80;;;24.50;47.40;;;;;;4970239;28;87735;-89
2022/08/28 10:04:23;;;;;;;15.43;5.50;;;24.50;47.50;;;;;;4972630;28;87466;-88
2022/08/28 10:07:16;;;;;;;17.27;5.97;;;24.50;47.90;;;;;;4972360;28;87124;-89
2022/08/28 10:09:53;;;;;;;13.63;4.78;;;24.50;47.60;;;;;;4971932;28;86871;-89
2022/08/28 10:12:31;;;;;;;15.55;4.85;;;24.50;47.60;;;;;;4971891;28;88300;-89
2022/08/28 10:15:29;;;;;;;14.50;4.63;;;24.50;47.70;;;;;;4972309;28;88308;-87
2022/08/28 10:18:13;;;;;;;10.15;3.90;;;24.50;47.50;;;;;;4969992;28;88668;-88
2022/08/28 10:20:57;;;;;;;9.77;3.85;;;24.60;47.30;;;;;;4971771;28;90677;-91
2022/08/28 10:23:35;;;;;;;15.68;5.10;;;24.60;47.20;;;;;;5002717;28;90490;-87
2022/08/28 10:26:14;;;;;;;9.18;3.88;;;24.60;47.70;;;;;;4968682;28;90967;-87
2022/08/28 10:29:01;;;;;;;9.27;3.35;;;24.60;47.60;;;;;;4971850;28;86998;-88
2022/08/28 10:31:32;;;;;;;9.82;3.88;;;24.50;47.10;;;;;;4968910;28;86988;-90
2022/08/28 10:34:10;;;;;;;10.45;3.05;;;24.50;47.40;;;;;;4971383;28;88383;-88
2022/08/28 10:36:36;;;;;;;11.88;3.75;;;24.60;46.80;;;;;;4973402;28;87286;-88
2022/08/28 10:39:07;;;;;;;13.07;3.97;;;24.60;46.80;;;;;;4971096;28;86960;-86
2022/08/28 10:41:37;;;;;;;11.40;3.22;;;24.60;47.10;;;;;;5003376;28;93840;-86
2022/08/28 10:44:04;;;;;;;9.70;3.75;;;24.70;47.00;;;;;;4966893;28;89722;-85
2022/08/28 10:46:49;;;;;;;10.10;2.95;;;24.70;46.50;;;;;;4969787;28;89638;-85
2022/08/28 10:49:17;;;;;;;13.38;3.92;;;24.70;46.60;;;;;;4970128;28;87280;-87
2022/08/28 10:51:51;;;;;;;7.77;3.20;;;24.70;46.50;;;;;;4970300;28;87628;-85
2022/08/28 10:54:52;;;;;;;13.40;3.78;;;24.70;47.50;;;;;;4986647;28;87253;-83
2022/08/28 10:57:46;;;;;;;9.85;3.05;;;24.70;46.50;;;;;;4966576;28;89263;-88
2022/08/28 11:00:15;;;;;;;11.43;3.50;;;24.70;46.80;;;;;;4966406;28;86928;-85
2022/08/28 11:02:45;;;;;;;8.65;3.17;;;24.70;46.90;;;;;;4967366;28;86570;-85
2022/08/28 11:05:11;;;;;;;8.77;3.10;;;24.60;47.10;;;;;;4968734;28;88091;-84
2022/08/28 11:07:43;;;;;;;8.00;3.05;;;24.70;47.00;;;;;;4968544;28;88292;-86
2022/08/28 11:10:21;;;;;;;7.78;2.88;;;24.70;47.00;;;;;;4968134;28;87851;-84
2022/08/28 11:12:50;;;;;;;9.85;2.88;;;24.70;46.90;;;;;;4967847;28;87536;-85
2022/08/28 11:15:28;;;;;;;;;;;24.70;46.30;;;;;;4968790;28;88630;-84
2022/08/28 11:18:49;;;;;;;10.57;2.63;;;24.70;46.20;;;;;;4971786;28;87642;-85
2022/08/28 11:21:26;;;;;;;7.68;2.70;;;24.70;46.50;;;;;;4927623;28;86940;-86
2022/08/28 11:24:02;;;;;;;13.07;3.53;;;24.70;46.30;;;;;;4928157;28;89827;-87
2022/08/28 11:26:36;;;;;;;13.27;3.00;;;24.70;46.60;;;;;;4927727;28;88561;-87
2022/08/28 11:29:03;;;;;;;10.25;3.33;;;24.70;46.80;;;;;;4962385;28;90475;-86
2022/08/28 11:31:33;;;;;;;11.07;3.90;;;24.70;46.90;;;;;;4967296;28;87071;-84
2022/08/28 11:33:59;;;;;;;11.23;3.60;;;24.70;47.00;;;;;;4967891;28;87565;-86
2022/08/28 11:36:27;;;;;;;8.95;2.78;;;24.70;46.90;;;;;;4968097;28;89058;-87
2022/08/28 11:38:55;;;;;;;11.85;3.47;;;24.70;46.50;;;;;;4967268;28;87599;-87
2022/08/28 11:41:58;;;;;;;8.55;2.83;;;24.80;46.50;;;;;;4964813;28;87106;-86
2022/08/28 11:44:36;;;;;;;12.20;3.00;;;25.00;47.40;;;;;;4967028;28;87526;-85
2022/08/28 11:47:34;;;;;;;11.27;3.33;;;25.10;47.20;;;;;;4969235;28;87969;-86
2022/08/28 11:50:28;;;;;;;16.63;3.33;;;25.20;46.80;;;;;;4950064;28;91635;-87
2022/08/28 11:53:10;;;;;;;7.53;2.85;;;25.20;48.00;;;;;;4889366;28;87203;-83
2022/08/28 11:55:49;;;;;;;5.95;2.90;;;25.30;46.70;;;;;;4916248;28;87112;-84
2022/08/28 11:58:29;;;;;;;7.20;2.72;;;25.30;46.40;;;;;;4926359;28;87942;-83
2022/08/28 12:01:07;;;;;;;8.27;2.47;;;25.20;46.00;;;;;;4928012;28;87152;-84
2022/08/28 12:03:51;;;;;;;5.38;2.83;;;25.20;46.20;;;;;;4911441;28;88421;-83
2022/08/28 12:06:46;;;;;;;8.68;2.33;;;25.20;46.40;;;;;;4908421;28;86985;-83
2022/08/28 12:09:37;;;;;;;6.05;2.28;;;25.20;45.90;;;;;;4908138;28;88863;-83
2022/08/28 12:12:44;;;;;;;5.93;2.50;;;25.10;45.80;;;;;;4909074;28;89097;-83
2022/08/28 12:15:26;;;;;;;6.28;2.40;;;25.00;46.40;;;;;;4909747;28;87534;-84
2022/08/28 12:18:12;;;;;;;7.35;2.42;;;24.90;46.30;;;;;;4908746;28;87377;-84
2022/08/28 12:20:49;;;;;;;8.25;2.80;;;24.80;46.50;;;;;;4908145;28;92325;-84
2022/08/28 12:23:38;;;;;;;6.32;2.72;;;24.70;46.20;;;;;;4907246;28;86625;-84
2022/08/28 12:26:18;;;;;;;6.35;2.38;;;24.70;46.90;;;;;;4899406;28;87157;-83
2022/08/28 12:28:51;;;;;;;4.68;2.15;;;24.60;45.80;;;;;;4925894;28;88827;-83
2022/08/28 12:32:10;;;;;;;6.68;2.65;;;24.60;46.70;;;;;;4960270;28;89260;-83
2022/08/28 12:34:24;;;;;;;6.22;2.72;;;24.70;46.60;;;;;;4967674;28;88921;-83
2022/08/28 12:37:01;;;;;;;7.15;2.95;;;24.60;47.00;;;;;;4967069;28;87275;-84
2022/08/28 12:39:29;;;;;;;8.18;2.30;;;24.50;47.20;;;;;;4969768;28;87417;-84
2022/08/28 12:41:56;;;;;;;4.75;1.85;;;24.60;45.90;;;;;;4945563;28;88736;-83
2022/08/28 12:44:29;;;;;;;5.80;2.60;;;24.70;45.50;;;;;;4946727;28;88243;-83
2022/08/28 12:46:55;;;;;;;5.57;2.38;;;24.60;45.50;;;;;;4945159;28;87568;-82
2022/08/28 12:49:33;;;;;;;7.95;2.45;;;24.60;45.70;;;;;;4945955;28;88125;-82
2022/08/28 12:52:15;;;;;;;4.83;2.53;;;24.60;45.70;;;;;;4946155;28;90008;-83
2022/08/28 12:54:41;;;;;;;8.45;2.20;;;24.60;46.10;;;;;;4945948;28;88308;-83
2022/08/28 12:57:10;;;;;;;5.70;2.45;;;24.60;45.80;;;;;;4944736;28;88322;-82
2022/08/28 12:59:39;;;;;;;4.47;2.17;;;24.60;46.50;;;;;;4944969;28;87678;-84
2022/08/28 13:02:16;;;;;;;7.00;2.13;;;24.50;46.00;;;;;;4947002;28;88578;-84
2022/08/28 13:04:54;;;;;;;5.82;2.00;;;24.60;45.50;;;;;;4944514;28;87215;-84
2022/08/28 13:07:51;;;;;;;5.65;2.45;;;24.60;45.00;;;;;;4946319;28;87599;-84
2022/08/28 13:10:25;;;;;;;6.00;2.28;;;24.60;45.50;;;;;;4914769;28;87726;-83